sensor_id;sensor_type;location;lat;lon;timestamp;P1;durP1;ratioP1;P2;durP2;ratioP2
21458;SDS011;10891;49.350;19.386;2023-04-23T00:00:16;26.10;;;15.40;;
21458;SDS011;10891;49.350;19.386;2023-04-23T00:02:43;23.75;;;13.20;;
21458;SDS011;10891;49.350;19.386;2023-04-23T00:05:14;31.67;;;16.98;;
21458;SDS011;10891;49.350;19.386;2023-04-23T00:07:41;40.67;;;19.45;;
21458;SDS011;10891;49.350;19.386;2023-04-23T00:10:09;40.03;;;19.65;;
21458;SDS011;10891;49.350;19.386;2023-04-23T00:12:36;36.72;;;20.25;;
21458;SDS011;10891;49.350;19.386;2023-04-23T00:15:06;26.40;;;13.77;;
21458;SDS011;10891;49.350;19.386;2023-04-23T00:17:34;21.08;;;10.65;;
21458;SDS011;10891;49.350;19.386;2023-04-23T00:20:00;34.45;;;17.70;;
21458;SDS011;10891;49.350;19.386;2023-04-23T00:22:27;20.30;;;10.85;;
21458;SDS011;10891;49.350;19.386;2023-04-23T00:24:54;18.55;;;10.93;;
21458;SDS011;10891;49.350;19.386;2023-04-23T00:27:21;18.60;;;10.73;;
21458;SDS011;10891;49.350;19.386;2023-04-23T00:29:48;19.02;;;10.93;;
21458;SDS011;10891;49.350;19.386;2023-04-23T00:32:16;21.33;;;11.70;;
21458;SDS011;10891;49.350;19.386;2023-04-23T00:34:43;21.13;;;11.70;;
21458;SDS011;10891;49.350;19.386;2023-04-23T00:37:12;19.02;;;11.82;;
21458;SDS011;10891;49.350;19.386;2023-04-23T00:39:40;18.48;;;11.40;;
21458;SDS011;10891;49.350;19.386;2023-04-23T00:42:07;21.35;;;12.05;;
21458;SDS011;10891;49.350;19.386;2023-04-23T00:44:36;19.45;;;11.90;;
21458;SDS011;10891;49.350;19.386;2023-04-23T00:47:03;19.80;;;11.20;;
21458;SDS011;10891;49.350;19.386;2023-04-23T00:49:33;19.90;;;11.20;;
21458;SDS011;10891;49.350;19.386;2023-04-23T00:52:00;19.23;;;11.73;;
21458;SDS011;10891;49.350;19.386;2023-04-23T00:54:27;17.40;;;10.63;;
21458;SDS011;10891;49.350;19.386;2023-04-23T00:56:54;20.50;;;10.75;;
21458;SDS011;10891;49.350;19.386;2023-04-23T00:59:22;25.10;;;12.25;;
21458;SDS011;10891;49.350;19.386;2023-04-23T01:01:50;17.30;;;11.05;;
21458;SDS011;10891;49.350;19.386;2023-04-23T01:04:17;21.50;;;11.18;;
21458;SDS011;10891;49.350;19.386;2023-04-23T01:06:48;20.38;;;11.30;;
21458;SDS011;10891;49.350;19.386;2023-04-23T01:09:15;20.15;;;12.43;;
21458;SDS011;10891;49.350;19.386;2023-04-23T01:11:43;27.95;;;14.93;;
21458;SDS011;10891;49.350;19.386;2023-04-23T01:14:10;26.67;;;13.50;;
21458;SDS011;10891;49.350;19.386;2023-04-23T01:16:37;29.02;;;13.98;;
21458;SDS011;10891;49.350;19.386;2023-04-23T01:19:05;25.35;;;16.42;;
21458;SDS011;10891;49.350;19.386;2023-04-23T01:21:33;25.73;;;16.65;;
21458;SDS011;10891;49.350;19.386;2023-04-23T01:24:03;25.73;;;17.77;;
21458;SDS011;10891;49.350;19.386;2023-04-23T01:26:30;22.48;;;12.75;;
21458;SDS011;10891;49.350;19.386;2023-04-23T01:28:58;20.77;;;11.60;;
21458;SDS011;10891;49.350;19.386;2023-04-23T01:31:26;29.77;;;18.70;;
21458;SDS011;10891;49.350;19.386;2023-04-23T01:33:53;32.90;;;19.35;;
21458;SDS011;10891;49.350;19.386;2023-04-23T01:36:21;21.77;;;12.15;;
21458;SDS011;10891;49.350;19.386;2023-04-23T01:38:48;19.17;;;12.45;;
21458;SDS011;10891;49.350;19.386;2023-04-23T01:41:16;20.60;;;11.90;;
21458;SDS011;10891;49.350;19.386;2023-04-23T01:43:44;24.10;;;12.20;;
21458;SDS011;10891;49.350;19.386;2023-04-23T01:46:11;23.08;;;13.32;;
21458;SDS011;10891;49.350;19.386;2023-04-23T01:48:38;22.30;;;13.45;;
21458;SDS011;10891;49.350;19.386;2023-04-23T01:51:05;19.65;;;12.55;;
21458;SDS011;10891;49.350;19.386;2023-04-23T01:53:33;22.92;;;12.20;;
21458;SDS011;10891;49.350;19.386;2023-04-23T01:56:00;18.95;;;11.70;;
21458;SDS011;10891;49.350;19.386;2023-04-23T01:58:29;18.40;;;10.63;;
21458;SDS011;10891;49.350;19.386;2023-04-23T02:00:56;17.33;;;10.52;;
21458;SDS011;10891;49.350;19.386;2023-04-23T02:03:23;20.80;;;10.60;;
21458;SDS011;10891;49.350;19.386;2023-04-23T02:05:50;18.45;;;11.27;;
21458;SDS011;10891;49.350;19.386;2023-04-23T02:08:19;19.42;;;11.88;;
21458;SDS011;10891;49.350;19.386;2023-04-23T02:10:46;19.15;;;11.13;;
21458;SDS011;10891;49.350;19.386;2023-04-23T02:13:13;20.75;;;12.00;;
21458;SDS011;10891;49.350;19.386;2023-04-23T02:15:41;24.55;;;12.13;;
21458;SDS011;10891;49.350;19.386;2023-04-23T02:18:08;21.50;;;12.43;;
21458;SDS011;10891;49.350;19.386;2023-04-23T02:20:36;29.02;;;16.52;;
21458;SDS011;10891;49.350;19.386;2023-04-23T02:23:05;26.83;;;13.43;;
21458;SDS011;10891;49.350;19.386;2023-04-23T02:25:32;22.08;;;13.13;;
21458;SDS011;10891;49.350;19.386;2023-04-23T02:27:59;22.38;;;11.20;;
21458;SDS011;10891;49.350;19.386;2023-04-23T02:30:30;22.98;;;12.27;;
21458;SDS011;10891;49.350;19.386;2023-04-23T02:32:58;17.13;;;10.93;;
21458;SDS011;10891;49.350;19.386;2023-04-23T02:35:25;19.67;;;11.23;;
21458;SDS011;10891;49.350;19.386;2023-04-23T02:37:52;23.92;;;10.65;;
21458;SDS011;10891;49.350;19.386;2023-04-23T02:40:20;28.58;;;12.52;;
21458;SDS011;10891;49.350;19.386;2023-04-23T02:42:47;23.77;;;11.60;;
21458;SDS011;10891;49.350;19.386;2023-04-23T02:45:15;30.60;;;11.18;;
21458;SDS011;10891;49.350;19.386;2023-04-23T02:47:42;30.55;;;11.40;;
21458;SDS011;10891;49.350;19.386;2023-04-23T02:50:10;24.02;;;11.57;;
21458;SDS011;10891;49.350;19.386;2023-04-23T02:52:37;22.00;;;12.05;;
21458;SDS011;10891;49.350;19.386;2023-04-23T02:55:04;22.73;;;11.00;;
21458;SDS011;10891;49.350;19.386;2023-04-23T02:57:33;21.23;;;10.57;;
21458;SDS011;10891;49.350;19.386;2023-04-23T03:00:00;22.35;;;11.40;;
21458;SDS011;10891;49.350;19.386;2023-04-23T03:02:28;18.88;;;11.77;;
21458;SDS011;10891;49.350;19.386;2023-04-23T03:04:55;19.33;;;11.25;;
21458;SDS011;10891;49.350;19.386;2023-04-23T03:07:23;24.17;;;11.60;;
21458;SDS011;10891;49.350;19.386;2023-04-23T03:09:50;21.98;;;11.25;;
21458;SDS011;10891;49.350;19.386;2023-04-23T03:12:17;20.15;;;11.52;;
21458;SDS011;10891;49.350;19.386;2023-04-23T03:14:44;20.77;;;11.82;;
21458;SDS011;10891;49.350;19.386;2023-04-23T03:17:11;20.77;;;11.00;;
21458;SDS011;10891;49.350;19.386;2023-04-23T03:19:38;27.83;;;11.90;;
21458;SDS011;10891;49.350;19.386;2023-04-23T03:22:04;22.15;;;11.00;;
21458;SDS011;10891;49.350;19.386;2023-04-23T03:24:33;21.50;;;11.85;;
21458;SDS011;10891;49.350;19.386;2023-04-23T03:27:00;20.05;;;11.40;;
21458;SDS011;10891;49.350;19.386;2023-04-23T03:29:27;21.92;;;11.30;;
21458;SDS011;10891;49.350;19.386;2023-04-23T03:31:53;23.73;;;11.75;;
21458;SDS011;10891;49.350;19.386;2023-04-23T03:34:20;22.70;;;12.13;;
21458;SDS011;10891;49.350;19.386;2023-04-23T03:36:47;22.40;;;11.68;;
21458;SDS011;10891;49.350;19.386;2023-04-23T03:39:15;15.88;;;9.98;;
21458;SDS011;10891;49.350;19.386;2023-04-23T03:41:43;20.58;;;11.48;;
21458;SDS011;10891;49.350;19.386;2023-04-23T03:44:10;20.25;;;10.85;;
21458;SDS011;10891;49.350;19.386;2023-04-23T03:46:37;22.08;;;11.70;;
21458;SDS011;10891;49.350;19.386;2023-04-23T03:49:04;20.00;;;10.57;;
21458;SDS011;10891;49.350;19.386;2023-04-23T03:51:30;22.50;;;12.35;;
21458;SDS011;10891;49.350;19.386;2023-04-23T03:53:57;22.50;;;11.48;;
21458;SDS011;10891;49.350;19.386;2023-04-23T03:56:24;26.27;;;12.15;;
21458;SDS011;10891;49.350;19.386;2023-04-23T03:58:52;26.92;;;12.15;;
21458;SDS011;10891;49.350;19.386;2023-04-23T04:01:19;29.00;;;12.57;;
21458;SDS011;10891;49.350;19.386;2023-04-23T04:03:46;24.70;;;11.48;;
21458;SDS011;10891;49.350;19.386;2023-04-23T04:06:13;24.02;;;11.90;;
21458;SDS011;10891;49.350;19.386;2023-04-23T04:08:40;24.02;;;11.48;;
21458;SDS011;10891;49.350;19.386;2023-04-23T04:11:07;18.88;;;10.50;;
21458;SDS011;10891;49.350;19.386;2023-04-23T04:13:34;18.08;;;9.50;;
21458;SDS011;10891;49.350;19.386;2023-04-23T04:16:03;18.27;;;9.27;;
21458;SDS011;10891;49.350;19.386;2023-04-23T04:18:30;13.95;;;7.82;;
21458;SDS011;10891;49.350;19.386;2023-04-23T04:20:57;13.75;;;8.68;;
21458;SDS011;10891;49.350;19.386;2023-04-23T04:23:24;14.27;;;8.80;;
21458;SDS011;10891;49.350;19.386;2023-04-23T04:25:51;20.33;;;11.80;;
21458;SDS011;10891;49.350;19.386;2023-04-23T04:28:20;28.45;;;14.45;;
21458;SDS011;10891;49.350;19.386;2023-04-23T04:30:49;14.63;;;8.80;;
21458;SDS011;10891;49.350;19.386;2023-04-23T04:33:17;20.75;;;10.15;;
21458;SDS011;10891;49.350;19.386;2023-04-23T04:35:44;31.23;;;18.50;;
21458;SDS011;10891;49.350;19.386;2023-04-23T04:38:13;14.15;;;8.65;;
21458;SDS011;10891;49.350;19.386;2023-04-23T04:40:40;15.43;;;8.32;;
21458;SDS011;10891;49.350;19.386;2023-04-23T04:43:07;16.33;;;8.43;;
21458;SDS011;10891;49.350;19.386;2023-04-23T04:45:34;13.98;;;8.90;;
21458;SDS011;10891;49.350;19.386;2023-04-23T04:48:01;21.67;;;9.85;;
21458;SDS011;10891;49.350;19.386;2023-04-23T04:50:29;24.63;;;12.18;;
21458;SDS011;10891;49.350;19.386;2023-04-23T04:52:56;21.25;;;11.88;;
21458;SDS011;10891;49.350;19.386;2023-04-23T04:55:22;21.35;;;11.48;;
21458;SDS011;10891;49.350;19.386;2023-04-23T04:57:49;20.63;;;11.48;;
21458;SDS011;10891;49.350;19.386;2023-04-23T05:00:20;19.63;;;11.88;;
21458;SDS011;10891;49.350;19.386;2023-04-23T05:02:48;16.88;;;11.43;;
21458;SDS011;10891;49.350;19.386;2023-04-23T05:05:16;17.40;;;10.90;;
21458;SDS011;10891;49.350;19.386;2023-04-23T05:07:45;249.07;;;92.13;;
21458;SDS011;10891;49.350;19.386;2023-04-23T05:10:12;75.60;;;32.35;;
21458;SDS011;10891;49.350;19.386;2023-04-23T05:12:39;27.58;;;16.17;;
21458;SDS011;10891;49.350;19.386;2023-04-23T05:15:07;24.08;;;13.98;;
21458;SDS011;10891;49.350;19.386;2023-04-23T05:17:39;21.80;;;15.38;;
21458;SDS011;10891;49.350;19.386;2023-04-23T05:20:18;26.90;;;15.30;;
21458;SDS011;10891;49.350;19.386;2023-04-23T05:22:50;26.98;;;16.25;;
21458;SDS011;10891;49.350;19.386;2023-04-23T05:25:19;24.52;;;12.93;;
21458;SDS011;10891;49.350;19.386;2023-04-23T05:27:46;24.15;;;11.68;;
21458;SDS011;10891;49.350;19.386;2023-04-23T05:30:13;18.15;;;10.43;;
21458;SDS011;10891;49.350;19.386;2023-04-23T05:32:40;17.10;;;10.68;;
21458;SDS011;10891;49.350;19.386;2023-04-23T05:35:07;18.17;;;11.57;;
21458;SDS011;10891;49.350;19.386;2023-04-23T05:37:34;18.13;;;10.55;;
21458;SDS011;10891;49.350;19.386;2023-04-23T05:40:03;16.50;;;10.30;;
21458;SDS011;10891;49.350;19.386;2023-04-23T05:42:34;15.93;;;8.90;;
21458;SDS011;10891;49.350;19.386;2023-04-23T05:45:02;14.48;;;9.82;;
21458;SDS011;10891;49.350;19.386;2023-04-23T05:47:30;15.48;;;8.85;;
21458;SDS011;10891;49.350;19.386;2023-04-23T05:49:57;14.18;;;8.30;;
21458;SDS011;10891;49.350;19.386;2023-04-23T05:52:24;16.98;;;10.00;;
21458;SDS011;10891;49.350;19.386;2023-04-23T05:54:51;16.38;;;8.65;;
21458;SDS011;10891;49.350;19.386;2023-04-23T05:57:20;16.60;;;8.30;;
21458;SDS011;10891;49.350;19.386;2023-04-23T05:59:46;16.35;;;8.63;;
21458;SDS011;10891;49.350;19.386;2023-04-23T06:02:13;20.40;;;8.38;;
21458;SDS011;10891;49.350;19.386;2023-04-23T06:04:41;13.30;;;8.93;;
21458;SDS011;10891;49.350;19.386;2023-04-23T06:07:08;14.07;;;8.75;;
21458;SDS011;10891;49.350;19.386;2023-04-23T06:09:36;14.38;;;8.13;;
21458;SDS011;10891;49.350;19.386;2023-04-23T06:12:03;11.95;;;7.68;;
21458;SDS011;10891;49.350;19.386;2023-04-23T06:14:31;11.63;;;7.60;;
21458;SDS011;10891;49.350;19.386;2023-04-23T06:16:58;13.55;;;7.78;;
21458;SDS011;10891;49.350;19.386;2023-04-23T06:19:25;16.80;;;7.80;;
21458;SDS011;10891;49.350;19.386;2023-04-23T06:21:52;14.68;;;7.82;;
21458;SDS011;10891;49.350;19.386;2023-04-23T06:24:19;12.32;;;8.18;;
21458;SDS011;10891;49.350;19.386;2023-04-23T06:26:46;16.05;;;8.20;;
21458;SDS011;10891;49.350;19.386;2023-04-23T06:29:13;13.93;;;8.93;;
21458;SDS011;10891;49.350;19.386;2023-04-23T06:31:41;16.33;;;8.60;;
21458;SDS011;10891;49.350;19.386;2023-04-23T06:34:08;14.20;;;8.15;;
21458;SDS011;10891;49.350;19.386;2023-04-23T06:36:35;17.67;;;8.50;;
21458;SDS011;10891;49.350;19.386;2023-04-23T06:39:02;13.95;;;8.48;;
21458;SDS011;10891;49.350;19.386;2023-04-23T06:41:29;20.83;;;8.65;;
21458;SDS011;10891;49.350;19.386;2023-04-23T06:43:56;12.77;;;8.02;;
21458;SDS011;10891;49.350;19.386;2023-04-23T06:46:23;16.23;;;8.23;;
21458;SDS011;10891;49.350;19.386;2023-04-23T06:48:51;14.68;;;8.45;;
21458;SDS011;10891;49.350;19.386;2023-04-23T06:51:18;12.15;;;6.15;;
21458;SDS011;10891;49.350;19.386;2023-04-23T06:53:45;15.00;;;7.35;;
21458;SDS011;10891;49.350;19.386;2023-04-23T06:56:12;8.20;;;4.85;;
21458;SDS011;10891;49.350;19.386;2023-04-23T06:58:40;8.82;;;4.13;;
21458;SDS011;10891;49.350;19.386;2023-04-23T07:01:07;15.38;;;6.93;;
21458;SDS011;10891;49.350;19.386;2023-04-23T07:03:35;15.20;;;7.72;;
21458;SDS011;10891;49.350;19.386;2023-04-23T07:06:04;8.50;;;4.88;;
21458;SDS011;10891;49.350;19.386;2023-04-23T07:08:32;8.55;;;5.30;;
21458;SDS011;10891;49.350;19.386;2023-04-23T07:10:59;10.27;;;4.93;;
21458;SDS011;10891;49.350;19.386;2023-04-23T07:13:26;9.25;;;4.82;;
21458;SDS011;10891;49.350;19.386;2023-04-23T07:15:53;7.35;;;5.20;;
21458;SDS011;10891;49.350;19.386;2023-04-23T07:18:20;10.05;;;5.28;;
21458;SDS011;10891;49.350;19.386;2023-04-23T07:20:47;8.77;;;5.20;;
21458;SDS011;10891;49.350;19.386;2023-04-23T07:23:16;11.75;;;5.57;;
21458;SDS011;10891;49.350;19.386;2023-04-23T07:25:42;8.68;;;5.72;;
21458;SDS011;10891;49.350;19.386;2023-04-23T07:28:09;9.75;;;5.03;;
21458;SDS011;10891;49.350;19.386;2023-04-23T07:30:36;12.30;;;4.65;;
21458;SDS011;10891;49.350;19.386;2023-04-23T07:33:03;18.50;;;6.22;;
21458;SDS011;10891;49.350;19.386;2023-04-23T07:35:30;7.20;;;4.63;;
21458;SDS011;10891;49.350;19.386;2023-04-23T07:37:57;10.38;;;5.63;;
21458;SDS011;10891;49.350;19.386;2023-04-23T07:40:25;6.45;;;4.55;;
21458;SDS011;10891;49.350;19.386;2023-04-23T07:42:52;7.65;;;4.15;;
21458;SDS011;10891;49.350;19.386;2023-04-23T07:45:19;9.25;;;4.35;;
21458;SDS011;10891;49.350;19.386;2023-04-23T07:47:46;7.80;;;4.35;;
21458;SDS011;10891;49.350;19.386;2023-04-23T07:50:14;6.45;;;4.28;;
21458;SDS011;10891;49.350;19.386;2023-04-23T07:52:41;8.30;;;4.18;;
21458;SDS011;10891;49.350;19.386;2023-04-23T07:55:09;7.20;;;4.78;;
21458;SDS011;10891;49.350;19.386;2023-04-23T07:57:37;8.02;;;4.55;;
21458;SDS011;10891;49.350;19.386;2023-04-23T08:00:05;8.45;;;4.00;;
21458;SDS011;10891;49.350;19.386;2023-04-23T08:02:33;5.95;;;3.85;;
21458;SDS011;10891;49.350;19.386;2023-04-23T08:05:00;7.75;;;4.13;;
21458;SDS011;10891;49.350;19.386;2023-04-23T08:07:27;8.70;;;5.70;;
21458;SDS011;10891;49.350;19.386;2023-04-23T08:09:54;8.63;;;4.10;;
21458;SDS011;10891;49.350;19.386;2023-04-23T08:12:26;12.23;;;4.10;;
21458;SDS011;10891;49.350;19.386;2023-04-23T08:14:55;10.02;;;4.72;;
21458;SDS011;10891;49.350;19.386;2023-04-23T08:17:22;10.13;;;4.63;;
21458;SDS011;10891;49.350;19.386;2023-04-23T08:19:49;4.25;;;3.65;;
21458;SDS011;10891;49.350;19.386;2023-04-23T08:22:16;7.65;;;4.38;;
21458;SDS011;10891;49.350;19.386;2023-04-23T08:24:43;6.82;;;4.13;;
21458;SDS011;10891;49.350;19.386;2023-04-23T08:27:11;8.43;;;4.65;;
21458;SDS011;10891;49.350;19.386;2023-04-23T08:29:38;10.50;;;5.72;;
21458;SDS011;10891;49.350;19.386;2023-04-23T08:32:07;10.50;;;4.25;;
21458;SDS011;10891;49.350;19.386;2023-04-23T08:34:35;11.32;;;4.10;;
21458;SDS011;10891;49.350;19.386;2023-04-23T08:37:02;11.15;;;4.25;;
21458;SDS011;10891;49.350;19.386;2023-04-23T08:39:30;9.10;;;4.10;;
21458;SDS011;10891;49.350;19.386;2023-04-23T08:41:59;9.93;;;4.90;;
21458;SDS011;10891;49.350;19.386;2023-04-23T08:44:34;10.88;;;5.43;;
21458;SDS011;10891;49.350;19.386;2023-04-23T08:47:03;6.93;;;4.13;;
21458;SDS011;10891;49.350;19.386;2023-04-23T08:49:34;6.30;;;4.22;;
21458;SDS011;10891;49.350;19.386;2023-04-23T08:52:06;9.88;;;4.93;;
21458;SDS011;10891;49.350;19.386;2023-04-23T08:54:40;11.30;;;4.45;;
21458;SDS011;10891;49.350;19.386;2023-04-23T08:57:13;9.48;;;4.03;;
21458;SDS011;10891;49.350;19.386;2023-04-23T08:59:43;6.72;;;4.15;;
21458;SDS011;10891;49.350;19.386;2023-04-23T09:02:11;14.85;;;4.43;;
21458;SDS011;10891;49.350;19.386;2023-04-23T09:04:41;6.03;;;4.10;;
21458;SDS011;10891;49.350;19.386;2023-04-23T09:07:09;8.13;;;4.35;;
21458;SDS011;10891;49.350;19.386;2023-04-23T09:09:38;7.47;;;4.15;;
21458;SDS011;10891;49.350;19.386;2023-04-23T09:12:09;7.00;;;4.72;;
21458;SDS011;10891;49.350;19.386;2023-04-23T09:14:36;10.70;;;5.10;;
21458;SDS011;10891;49.350;19.386;2023-04-23T09:17:04;8.90;;;4.60;;
21458;SDS011;10891;49.350;19.386;2023-04-23T09:19:31;11.70;;;3.65;;
21458;SDS011;10891;49.350;19.386;2023-04-23T09:21:59;8.35;;;4.63;;
21458;SDS011;10891;49.350;19.386;2023-04-23T09:24:26;11.95;;;5.03;;
21458;SDS011;10891;49.350;19.386;2023-04-23T09:26:56;9.00;;;4.55;;
21458;SDS011;10891;49.350;19.386;2023-04-23T09:29:23;9.27;;;3.97;;
21458;SDS011;10891;49.350;19.386;2023-04-23T09:31:52;10.55;;;4.80;;
21458;SDS011;10891;49.350;19.386;2023-04-23T09:34:22;14.73;;;4.85;;
21458;SDS011;10891;49.350;19.386;2023-04-23T09:36:51;7.88;;;4.72;;
21458;SDS011;10891;49.350;19.386;2023-04-23T09:39:20;8.55;;;3.95;;
21458;SDS011;10891;49.350;19.386;2023-04-23T09:41:50;10.75;;;6.43;;
21458;SDS011;10891;49.350;19.386;2023-04-23T09:44:18;12.88;;;4.50;;
21458;SDS011;10891;49.350;19.386;2023-04-23T09:46:47;7.93;;;4.68;;
21458;SDS011;10891;49.350;19.386;2023-04-23T09:49:15;6.47;;;3.97;;
21458;SDS011;10891;49.350;19.386;2023-04-23T09:51:43;13.63;;;4.38;;
21458;SDS011;10891;49.350;19.386;2023-04-23T09:54:12;11.05;;;4.93;;
21458;SDS011;10891;49.350;19.386;2023-04-23T09:56:42;9.55;;;5.25;;
21458;SDS011;10891;49.350;19.386;2023-04-23T09:59:19;9.40;;;4.88;;
21458;SDS011;10891;49.350;19.386;2023-04-23T10:01:48;10.60;;;4.32;;
21458;SDS011;10891;49.350;19.386;2023-04-23T10:04:17;8.48;;;5.93;;
21458;SDS011;10891;49.350;19.386;2023-04-23T10:06:47;5.65;;;3.30;;
21458;SDS011;10891;49.350;19.386;2023-04-23T10:09:20;12.18;;;3.80;;
21458;SDS011;10891;49.350;19.386;2023-04-23T10:11:51;9.55;;;3.83;;
21458;SDS011;10891;49.350;19.386;2023-04-23T10:14:23;5.63;;;3.33;;
21458;SDS011;10891;49.350;19.386;2023-04-23T10:16:52;7.57;;;3.63;;
21458;SDS011;10891;49.350;19.386;2023-04-23T10:19:26;6.28;;;3.35;;
21458;SDS011;10891;49.350;19.386;2023-04-23T10:21:54;9.23;;;4.00;;
21458;SDS011;10891;49.350;19.386;2023-04-23T10:24:24;7.60;;;3.55;;
21458;SDS011;10891;49.350;19.386;2023-04-23T10:26:56;6.55;;;3.90;;
21458;SDS011;10891;49.350;19.386;2023-04-23T10:29:26;6.28;;;3.67;;
21458;SDS011;10891;49.350;19.386;2023-04-23T10:31:55;6.32;;;3.67;;
21458;SDS011;10891;49.350;19.386;2023-04-23T10:34:23;7.68;;;4.25;;
21458;SDS011;10891;49.350;19.386;2023-04-23T10:36:52;7.82;;;3.95;;
21458;SDS011;10891;49.350;19.386;2023-04-23T10:39:20;9.75;;;4.25;;
21458;SDS011;10891;49.350;19.386;2023-04-23T10:41:49;7.40;;;3.80;;
21458;SDS011;10891;49.350;19.386;2023-04-23T10:44:20;3.78;;;2.83;;
21458;SDS011;10891;49.350;19.386;2023-04-23T10:46:51;11.82;;;3.67;;
21458;SDS011;10891;49.350;19.386;2023-04-23T10:49:21;5.13;;;3.17;;
21458;SDS011;10891;49.350;19.386;2023-04-23T10:51:54;7.80;;;3.25;;
21458;SDS011;10891;49.350;19.386;2023-04-23T10:54:27;11.02;;;3.40;;
21458;SDS011;10891;49.350;19.386;2023-04-23T10:56:57;8.82;;;3.22;;
21458;SDS011;10891;49.350;19.386;2023-04-23T10:59:27;5.60;;;3.38;;
21458;SDS011;10891;49.350;19.386;2023-04-23T11:01:55;11.20;;;3.40;;
21458;SDS011;10891;49.350;19.386;2023-04-23T11:04:26;8.82;;;3.50;;
21458;SDS011;10891;49.350;19.386;2023-04-23T11:06:59;4.40;;;3.03;;
21458;SDS011;10891;49.350;19.386;2023-04-23T11:09:31;9.15;;;3.30;;
21458;SDS011;10891;49.350;19.386;2023-04-23T11:12:05;11.52;;;3.17;;
21458;SDS011;10891;49.350;19.386;2023-04-23T11:14:36;5.97;;;3.38;;
21458;SDS011;10891;49.350;19.386;2023-04-23T11:17:09;6.03;;;3.10;;
21458;SDS011;10891;49.350;19.386;2023-04-23T11:19:37;6.70;;;3.30;;
21458;SDS011;10891;49.350;19.386;2023-04-23T11:22:06;6.53;;;3.13;;
21458;SDS011;10891;49.350;19.386;2023-04-23T11:24:38;5.35;;;3.05;;
21458;SDS011;10891;49.350;19.386;2023-04-23T11:27:07;7.13;;;3.40;;
21458;SDS011;10891;49.350;19.386;2023-04-23T11:29:37;10.70;;;3.60;;
21458;SDS011;10891;49.350;19.386;2023-04-23T11:32:05;7.68;;;3.65;;
21458;SDS011;10891;49.350;19.386;2023-04-23T11:34:35;10.07;;;3.17;;
21458;SDS011;10891;49.350;19.386;2023-04-23T11:37:02;5.18;;;3.40;;
21458;SDS011;10891;49.350;19.386;2023-04-23T11:39:30;3.92;;;3.10;;
21458;SDS011;10891;49.350;19.386;2023-04-23T11:41:57;11.32;;;4.40;;
21458;SDS011;10891;49.350;19.386;2023-04-23T11:44:27;5.47;;;3.20;;
21458;SDS011;10891;49.350;19.386;2023-04-23T11:46:59;5.30;;;3.25;;
21458;SDS011;10891;49.350;19.386;2023-04-23T11:49:36;6.05;;;3.53;;
21458;SDS011;10891;49.350;19.386;2023-04-23T11:52:04;6.50;;;3.10;;
21458;SDS011;10891;49.350;19.386;2023-04-23T11:54:32;8.07;;;3.10;;
21458;SDS011;10891;49.350;19.386;2023-04-23T11:57:02;5.70;;;3.38;;
21458;SDS011;10891;49.350;19.386;2023-04-23T11:59:37;5.70;;;3.25;;
21458;SDS011;10891;49.350;19.386;2023-04-23T12:02:06;3.63;;;2.85;;
21458;SDS011;10891;49.350;19.386;2023-04-23T12:04:34;3.10;;;2.42;;
21458;SDS011;10891;49.350;19.386;2023-04-23T12:07:01;8.98;;;3.55;;
21458;SDS011;10891;49.350;19.386;2023-04-23T12:09:29;4.95;;;2.75;;
21458;SDS011;10891;49.350;19.386;2023-04-23T12:11:57;6.82;;;3.15;;
21458;SDS011;10891;49.350;19.386;2023-04-23T12:14:25;11.45;;;3.65;;
21458;SDS011;10891;49.350;19.386;2023-04-23T12:16:54;6.25;;;2.63;;
21458;SDS011;10891;49.350;19.386;2023-04-23T12:19:26;8.23;;;2.47;;
21458;SDS011;10891;49.350;19.386;2023-04-23T12:21:55;2.92;;;2.42;;
21458;SDS011;10891;49.350;19.386;2023-04-23T12:24:26;6.07;;;2.65;;
21458;SDS011;10891;49.350;19.386;2023-04-23T12:27:08;3.42;;;2.55;;
21458;SDS011;10891;49.350;19.386;2023-04-23T12:29:46;4.00;;;2.58;;
21458;SDS011;10891;49.350;19.386;2023-04-23T12:32:15;7.75;;;2.72;;
21458;SDS011;10891;49.350;19.386;2023-04-23T12:34:51;3.47;;;2.53;;
21458;SDS011;10891;49.350;19.386;2023-04-23T12:37:22;2.80;;;2.30;;
21458;SDS011;10891;49.350;19.386;2023-04-23T12:40:00;8.80;;;2.90;;
21458;SDS011;10891;49.350;19.386;2023-04-23T12:42:31;4.80;;;2.70;;
21458;SDS011;10891;49.350;19.386;2023-04-23T12:45:03;3.78;;;2.35;;
21458;SDS011;10891;49.350;19.386;2023-04-23T12:47:32;7.85;;;3.10;;
21458;SDS011;10891;49.350;19.386;2023-04-23T12:50:00;3.58;;;2.47;;
21458;SDS011;10891;49.350;19.386;2023-04-23T12:52:29;7.30;;;2.60;;
21458;SDS011;10891;49.350;19.386;2023-04-23T12:54:56;4.82;;;2.83;;
21458;SDS011;10891;49.350;19.386;2023-04-23T12:57:25;9.60;;;2.85;;
21458;SDS011;10891;49.350;19.386;2023-04-23T12:59:52;10.05;;;3.25;;
21458;SDS011;10891;49.350;19.386;2023-04-23T13:02:20;4.60;;;2.92;;
21458;SDS011;10891;49.350;19.386;2023-04-23T13:04:47;5.80;;;2.80;;
21458;SDS011;10891;49.350;19.386;2023-04-23T13:07:16;6.70;;;2.88;;
21458;SDS011;10891;49.350;19.386;2023-04-23T13:09:43;6.90;;;3.38;;
21458;SDS011;10891;49.350;19.386;2023-04-23T13:12:10;10.23;;;3.08;;
21458;SDS011;10891;49.350;19.386;2023-04-23T13:14:37;5.50;;;2.83;;
21458;SDS011;10891;49.350;19.386;2023-04-23T13:17:05;11.02;;;4.07;;
21458;SDS011;10891;49.350;19.386;2023-04-23T13:19:32;6.82;;;3.53;;
21458;SDS011;10891;49.350;19.386;2023-04-23T13:22:01;3.72;;;2.70;;
21458;SDS011;10891;49.350;19.386;2023-04-23T13:24:31;5.55;;;3.05;;
21458;SDS011;10891;49.350;19.386;2023-04-23T13:26:58;7.35;;;3.42;;
21458;SDS011;10891;49.350;19.386;2023-04-23T13:29:29;6.32;;;3.15;;
21458;SDS011;10891;49.350;19.386;2023-04-23T13:31:59;6.20;;;3.53;;
21458;SDS011;10891;49.350;19.386;2023-04-23T13:34:26;5.68;;;3.08;;
21458;SDS011;10891;49.350;19.386;2023-04-23T13:36:55;6.60;;;2.85;;
21458;SDS011;10891;49.350;19.386;2023-04-23T13:39:22;7.95;;;2.80;;
21458;SDS011;10891;49.350;19.386;2023-04-23T13:41:51;4.93;;;2.60;;
21458;SDS011;10891;49.350;19.386;2023-04-23T13:44:18;4.28;;;2.83;;
21458;SDS011;10891;49.350;19.386;2023-04-23T13:46:46;7.65;;;3.20;;
21458;SDS011;10891;49.350;19.386;2023-04-23T13:49:13;10.10;;;3.33;;
21458;SDS011;10891;49.350;19.386;2023-04-23T13:51:41;12.73;;;4.78;;
21458;SDS011;10891;49.350;19.386;2023-04-23T13:54:08;8.07;;;5.38;;
21458;SDS011;10891;49.350;19.386;2023-04-23T13:56:35;6.05;;;3.97;;
21458;SDS011;10891;49.350;19.386;2023-04-23T13:59:04;5.72;;;3.50;;
21458;SDS011;10891;49.350;19.386;2023-04-23T14:01:32;8.05;;;3.30;;
21458;SDS011;10891;49.350;19.386;2023-04-23T14:04:00;6.25;;;3.67;;
21458;SDS011;10891;49.350;19.386;2023-04-23T14:06:28;8.00;;;3.38;;
21458;SDS011;10891;49.350;19.386;2023-04-23T14:08:55;10.82;;;3.28;;
21458;SDS011;10891;49.350;19.386;2023-04-23T14:11:22;8.80;;;3.50;;
21458;SDS011;10891;49.350;19.386;2023-04-23T14:13:49;9.18;;;4.43;;
21458;SDS011;10891;49.350;19.386;2023-04-23T14:16:17;9.52;;;4.47;;
21458;SDS011;10891;49.350;19.386;2023-04-23T14:18:44;6.43;;;2.90;;
21458;SDS011;10891;49.350;19.386;2023-04-23T14:21:11;8.00;;;4.18;;
21458;SDS011;10891;49.350;19.386;2023-04-23T14:23:48;12.07;;;6.60;;
21458;SDS011;10891;49.350;19.386;2023-04-23T14:26:20;6.15;;;3.20;;